Time;durP1;ratioP1;P1;durP2;ratioP2;P2;SDS_P1;SDS_P2;PMS_P1;PMS_P2;Temp;Humidity;BMP_temperature;BMP_pressure;BME280_temperature;BME280_humidity;BME280_pressure;Samples;Min_cycle;Max_cycle;Signal;HPM_P1;HPM_P2
2023/01/27 00:02:06;;;;;;;28.08;16.20;;;;;;;3.38;60.01;99847.28;7695148;32;39685;-81
2023/01/27 00:06:22;;;;;;;29.12;16.75;;;;;;;3.28;60.57;99844.28;7684877;32;40168;-83
2023/01/27 00:10:39;;;;;;;27.37;16.75;;;;;;;3.28;60.58;99840.78;7662945;32;38670;-80
2023/01/27 00:14:55;;;;;;;28.62;16.37;;;;;;;3.42;59.90;99830.69;7655911;32;37981;-82
2023/01/27 00:19:11;;;;;;;27.13;15.75;;;;;;;3.56;59.45;99842.94;7655822;32;39119;-82
2023/01/27 00:28:04;;;;;;;31.55;16.77;;;;;;;3.43;59.87;99835.81;7655621;32;37943;-82
2023/01/27 00:36:55;;;;;;;29.05;15.48;;;;;;;3.41;60.03;99829.00;7685892;32;40054;-82
2023/01/27 00:41:18;;;;;;;32.88;16.77;;;;;;;3.36;60.08;99827.81;7685616;32;39940;-83
2023/01/27 00:45:50;;;;;;;27.08;15.80;;;;;;;3.45;59.84;99820.25;7672915;32;37971;-82
2023/01/27 00:50:07;;;;;;;31.65;15.90;;;;;;;3.37;60.02;99820.56;7685576;32;35193;-82
2023/01/27 00:54:23;;;;;;;27.75;15.73;;;;;;;3.42;59.99;99819.91;7685653;32;39930;-82
2023/01/27 00:58:39;;;;;;;28.77;15.65;;;;;;;3.44;59.95;99820.50;7685366;32;39960;-82
2023/01/27 01:02:55;;;;;;;26.30;16.08;;;;;;;3.32;59.97;99821.22;7684021;32;37938;-82
2023/01/27 01:07:12;;;;;;;29.90;15.70;;;;;;;3.36;59.91;99822.44;7685552;32;37152;-83
2023/01/27 01:11:28;;;;;;;27.17;14.68;;;;;;;3.42;59.66;99834.19;7685260;32;39445;-83
2023/01/27 01:15:44;;;;;;;28.73;13.85;;;;;;;3.44;59.71;99824.00;7685191;32;40077;-82
2023/01/27 01:20:00;;;;;;;25.33;13.23;;;;;;;3.69;58.22;99810.44;7685149;32;37911;-82
2023/01/27 01:24:17;;;;;;;27.37;14.05;;;;;;;3.62;58.05;99809.69;7685413;32;37883;-82
2023/01/27 01:28:33;;;;;;;24.42;12.63;;;;;;;3.70;56.87;99804.00;7674873;32;39407;-83
2023/01/27 01:32:49;;;;;;;28.67;13.95;;;;;;;3.51;56.73;99813.97;7658763;32;39871;-83
2023/01/27 01:37:06;;;;;;;22.92;11.25;;;;;;;3.61;56.96;99799.97;7658628;32;38003;-82
2023/01/27 01:41:23;;;;;;;21.80;12.25;;;;;;;3.61;57.37;99791.06;7658656;32;37269;-82
2023/01/27 01:45:52;;;;;;;20.92;12.10;;;;;;;3.71;57.12;99789.47;7658589;32;39149;-83
2023/01/27 01:50:09;;;;;;;23.35;12.18;;;;;;;3.54;56.94;99786.56;7658530;32;39957;-83
2023/01/27 01:54:29;;;;;;;21.83;10.90;;;;;;;3.79;56.57;99792.91;7645103;32;38763;-84
2023/01/27 01:58:46;;;;;;;22.50;12.27;;;;;;;3.70;56.21;99795.91;7645918;32;37939;-82
2023/01/27 02:03:02;;;;;;;23.85;12.77;;;;;;;3.67;56.84;99788.25;7645076;32;40094;-82
2023/01/27 02:07:45;;;;;;;21.65;11.48;;;;;;;3.62;56.64;99787.28;7658386;32;39716;-83
2023/01/27 02:12:02;;;;;;;18.42;10.40;;;;;;;3.81;56.25;99782.72;7652134;32;38447;-82
2023/01/27 02:16:18;;;;;;;17.73;9.63;;;;;;;3.69;58.50;99788.88;7658219;32;37948;-83
2023/01/27 02:20:44;;;;;;;15.35;8.43;;;;;;;3.58;57.53;99786.94;7658350;32;39364;-82
2023/01/27 02:25:10;;;;;;;16.73;8.57;;;;;;;3.43;56.83;99789.19;7665198;32;40106;-82
2023/01/27 02:29:27;;;;;;;14.95;8.65;;;;;;;3.48;56.20;99786.63;7671941;32;37778;-83
2023/01/27 02:33:43;;;;;;;16.58;8.25;;;;;;;3.34;55.88;99784.09;7684525;32;37086;-83
2023/01/27 02:38:00;;;;;;;17.33;9.75;;;;;;;3.35;56.22;99780.34;7684425;32;39435;-84
2023/01/27 02:42:17;;;;;;;17.15;8.68;;;;;;;3.61;55.20;99774.88;7670902;32;40125;-83
2023/01/27 02:46:33;;;;;;;17.08;9.23;;;;;;;3.48;54.21;99773.16;7684291;32;37662;-83
2023/01/27 02:50:49;;;;;;;15.43;8.73;;;;;;;3.68;52.91;99762.97;7684293;32;37221;-82
2023/01/27 02:55:06;;;;;;;13.85;8.43;;;;;;;3.78;51.36;99761.56;7663743;32;39417;-83
2023/01/27 02:59:23;;;;;;;19.60;8.82;;;;;;;3.86;51.76;99755.88;7657653;32;39729;-82
2023/01/27 03:03:46;;;;;;;15.82;8.73;;;;;;;3.86;52.45;99755.88;7657623;32;38455;-82
2023/01/27 03:08:02;;;;;;;15.45;8.80;;;;;;;3.80;53.06;99743.31;7658282;32;37165;-82
2023/01/27 03:12:18;;;;;;;16.70;8.93;;;;;;;3.80;52.72;99737.94;7657051;32;39333;-82
2023/01/27 03:21:10;;;;;;;13.30;7.95;;;;;;;3.56;53.69;99740.50;7630977;32;37869;-83
2023/01/27 03:25:26;;;;;;;15.55;7.47;;;;;;;3.57;53.55;99736.78;7630756;32;37193;-83
2023/01/27 03:29:54;;;;;;;16.60;9.00;;;;;;;3.53;53.69;99730.19;7630988;32;40110;-83
2023/01/27 03:34:11;;;;;;;12.68;7.53;;;;;;;3.29;53.72;99730.03;7630833;32;40691;-82
2023/01/27 03:47:37;;;;;;;15.50;8.63;;;;;;;3.26;52.87;99713.50;7660319;32;39152;-82
2023/01/27 03:51:53;;;;;;;12.43;8.00;;;;;;;3.14;53.03;99708.03;7682978;32;39809;-82
2023/01/27 03:56:09;;;;;;;13.93;7.90;;;;;;;3.08;53.32;99714.34;7682765;32;37850;-82
2023/01/27 04:00:25;;;;;;;13.23;7.57;;;;;;;2.88;53.67;99710.00;7682715;32;37154;-82
2023/01/27 04:09:50;;;;;;;14.85;8.88;;;;;;;2.88;53.96;99711.84;7685679;32;40764;-82
2023/01/27 04:14:07;;;;;;;13.93;8.57;;;;;;;2.78;54.53;99718.59;7643047;32;37755;-82
2023/01/27 04:18:24;;;;;;;13.98;8.45;;;;;;;2.66;54.86;99717.66;7685985;32;37207;-83
2023/01/27 04:22:43;;;;;;;17.02;8.43;;;;;;;2.49;55.44;99714.72;7686119;32;40149;-82
2023/01/27 04:27:02;;;;;;;12.48;7.93;;;;;;;2.50;55.63;99705.59;7686404;32;40030;-80
2023/01/27 04:31:18;;;;;;;14.73;8.32;;;;;;;2.51;55.00;99711.81;7685931;32;38522;-82
2023/01/27 04:35:35;;;;;;;18.15;8.88;;;;;;;2.67;54.04;99707.72;7680306;32;37097;-82
2023/01/27 04:39:54;;;;;;;16.90;8.60;;;;;;;2.62;53.97;99714.59;7659281;32;39397;-83
2023/01/27 04:44:10;;;;;;;13.52;8.02;;;;;;;2.54;54.63;99716.75;7659430;32;40087;-82
2023/01/27 04:48:27;;;;;;;15.70;8.70;;;;;;;2.76;54.07;99709.91;7659430;32;37663;-82
2023/01/27 04:52:44;;;;;;;14.40;8.20;;;;;;;2.50;54.57;99694.84;7661157;32;37230;-82
2023/01/27 04:57:02;;;;;;;13.52;8.07;;;;;;;2.76;53.93;99701.84;7685674;32;39446;-82
2023/01/27 05:01:19;;;;;;;17.98;8.65;;;;;;;2.62;54.36;99703.00;7685613;32;39140;-82
2023/01/27 05:05:36;;;;;;;16.08;9.02;;;;;;;2.50;54.79;99696.69;7681706;32;37584;-82
2023/01/27 05:09:52;;;;;;;15.77;8.82;;;;;;;2.54;55.73;99695.22;7659210;32;37252;-82
2023/01/27 05:14:08;;;;;;;14.43;9.27;;;;;;;2.31;56.76;99710.13;7659048;32;40064;-83
2023/01/27 05:18:25;;;;;;;15.90;8.10;;;;;;;2.29;57.00;99708.69;7658468;32;40024;-83
2023/01/27 05:22:41;;;;;;;14.77;9.05;;;;;;;2.13;57.63;99716.25;7659060;32;37864;-82
2023/01/27 05:26:58;;;;;;;14.90;8.95;;;;;;;2.12;57.97;99721.84;7658964;32;37933;-82
2023/01/27 05:31:17;;;;;;;16.15;8.20;;;;;;;2.07;57.86;99714.44;7668664;32;39533;-82
2023/01/27 05:35:34;;;;;;;16.37;8.85;;;;;;;2.23;56.92;99721.97;7685310;32;40807;-81
2023/01/27 05:39:50;;;;;;;16.95;9.00;;;;;;;2.15;56.61;99716.84;7685180;32;37869;-82
2023/01/27 05:44:10;;;;;;;14.38;8.27;;;;;;;2.19;56.23;99715.38;7659567;32;37100;-82
2023/01/27 05:48:26;;;;;;;16.80;8.75;;;;;;;2.20;56.05;99710.81;7645734;32;39586;-83
2023/01/27 05:52:42;;;;;;;22.80;8.80;;;;;;;2.23;55.66;99707.69;7659012;32;38166;-83
2023/01/27 05:56:58;;;;;;;16.20;8.98;;;;;;;2.23;55.32;99708.50;7658644;32;37903;-81
2023/01/27 06:01:20;;;;;;;16.00;8.80;;;;;;;2.28;55.36;99723.16;7659581;32;36891;-82
2023/01/27 06:05:36;;;;;;;19.58;9.85;;;;;;;2.16;55.49;99721.19;7658699;32;39243;-83
2023/01/27 06:09:52;;;;;;;17.12;9.38;;;;;;;2.25;55.38;99713.69;7658466;32;40805;-84
2023/01/27 06:14:09;;;;;;;18.83;10.27;;;;;;;2.09;56.28;99715.03;7683250;32;38687;-83
2023/01/27 06:18:25;;;;;;;17.87;9.20;;;;;;;2.32;55.52;99719.81;7684793;32;36863;-81
2023/01/27 06:22:41;;;;;;;18.37;9.23;;;;;;;2.20;56.21;99719.69;7684546;32;40321;-82
2023/01/27 06:26:58;;;;;;;17.15;10.25;;;;;;;2.32;56.06;99719.81;7672517;32;40121;-83
2023/01/27 06:31:20;;;;;;;19.75;10.10;;;;;;;2.17;56.51;99732.75;7657188;32;38590;-82
2023/01/27 06:35:38;;;;;;;18.20;9.77;;;;;;;2.32;56.17;99740.53;7663571;32;37313;-82
2023/01/27 06:39:54;;;;;;;16.55;9.60;;;;;;;2.08;56.84;99740.28;7683123;32;39275;-82
2023/01/27 06:44:11;;;;;;;14.43;9.45;;;;;;;2.11;57.15;99747.09;7684276;32;39719;-82
2023/01/27 06:48:27;;;;;;;16.12;9.13;;;;;;;2.13;57.24;99743.13;7684421;32;38386;-83
2023/01/27 06:52:43;;;;;;;15.85;9.52;;;;;;;2.17;57.33;99744.34;7684320;32;37839;-82
2023/01/27 06:57:00;;;;;;;17.40;9.38;;;;;;;1.92;58.70;99743.50;7684243;32;39407;-83
2023/01/27 07:01:16;;;;;;;18.90;9.77;;;;;;;2.10;58.28;99737.38;7682518;32;40860;-83
2023/01/27 07:05:33;;;;;;;16.70;9.38;;;;;;;2.11;57.77;99739.84;7665869;32;37821;-82
2023/01/27 07:09:50;;;;;;;16.15;9.88;;;;;;;2.12;57.75;99730.75;7657724;32;37196;-82
2023/01/27 07:14:07;;;;;;;18.52;10.52;;;;;;;2.05;58.41;99735.31;7657650;32;39270;-81
2023/01/27 07:18:25;;;;;;;19.60;10.05;;;;;;;2.30;58.29;99734.56;7663471;32;39943;-82
2023/01/27 07:22:41;;;;;;;16.25;9.98;;;;;;;2.35;58.16;99732.84;7675341;32;38003;-84
2023/01/27 07:26:58;;;;;;;17.12;9.43;;;;;;;2.49;57.95;99735.44;7631033;32;37262;-81
2023/01/27 07:31:14;;;;;;;14.95;9.50;;;;;;;2.60;57.95;99743.63;7630984;32;39448;-75
2023/01/27 07:35:31;;;;;;;17.75;8.65;;;;;;;2.78;59.84;99740.13;7642867;32;40033;-82
2023/01/27 07:39:47;;;;;;;17.02;9.20;;;;;;;3.43;63.25;99730.69;7683279;32;37884;-81
2023/01/27 07:44:03;;;;;;;16.00;8.93;;;;;;;3.01;57.30;99736.78;7686589;32;37084;-80
2023/01/27 07:48:19;;;;;;;14.43;9.02;;;;;;;2.96;57.12;99744.69;7686495;32;39363;-82
2023/01/27 07:52:36;;;;;;;16.95;9.82;;;;;;;3.05;56.66;99739.84;7686508;32;40074;-83
2023/01/27 07:56:52;;;;;;;16.83;9.82;;;;;;;2.68;57.18;99749.75;7686315;32;37830;-82
2023/01/27 08:01:10;;;;;;;23.10;11.68;;;;;;;2.35;58.38;99748.97;7686351;32;37106;-82
2023/01/27 08:05:26;;;;;;;20.60;11.38;;;;;;;2.24;57.70;99745.12;7681763;32;39431;-82
2023/01/27 08:09:43;;;;;;;25.58;13.43;;;;;;;2.35;57.92;99735.53;7646402;32;40780;-80
2023/01/27 08:13:59;;;;;;;23.70;12.00;;;;;;;2.57;56.96;99730.59;7683607;32;38518;-81
2023/01/27 08:18:15;;;;;;;21.70;11.55;;;;;;;2.89;56.45;99735.88;7686202;32;37113;-80
2023/01/27 08:22:32;;;;;;;22.27;10.32;;;;;;;3.00;56.09;99735.16;7686160;32;39436;-80
2023/01/27 08:26:48;;;;;;;22.90;10.82;;;;;;;2.81;55.82;99738.84;7670900;32;40065;-78
2023/01/27 08:31:05;;;;;;;24.05;12.27;;;;;;;3.00;55.32;99737.84;7679919;32;38278;-78
2023/01/27 08:35:21;;;;;;;21.92;10.93;;;;;;;2.77;56.19;99743.84;7696435;32;37440;-75
2023/01/27 08:39:38;;;;;;;23.83;12.63;;;;;;;2.88;56.25;99745.00;7691552;32;39655;-82
2023/01/27 08:43:54;;;;;;;24.50;13.15;;;;;;;3.12;55.38;99739.78;7662967;32;40182;-80
2023/01/27 08:48:12;;;;;;;32.95;15.15;;;;;;;3.29;55.03;99740.00;7685400;32;37811;-80
2023/01/27 08:52:29;;;;;;;29.60;15.23;;;;;;;2.91;56.42;99746.41;7675127;32;38039;-79
2023/01/27 08:56:46;;;;;;;25.55;14.77;;;;;;;3.13;56.14;99738.75;7659809;32;40122;-81
2023/01/27 09:01:04;;;;;;;26.60;15.35;;;;;;;3.11;56.88;99744.34;7670569;32;40807;-82
2023/01/27 09:05:21;;;;;;;30.70;16.20;;;;;;;3.39;56.67;99734.91;7672336;32;37775;-83
2023/01/27 09:09:38;;;;;;;29.48;16.50;;;;;;;3.09;56.84;99742.94;7683824;32;37717;-82
2023/01/27 09:13:57;;;;;;;32.38;15.65;;;;;;;3.14;56.51;99748.44;7685257;32;39965;-82
2023/01/27 09:18:13;;;;;;;29.05;16.95;;;;;;;3.08;56.69;99749.37;7678428;32;40582;-82
2023/01/27 09:22:30;;;;;;;29.52;15.30;;;;;;;3.55;55.77;99738.84;7670091;32;38765;-81
2023/01/27 09:26:47;;;;;;;32.00;17.73;;;;;;;3.66;55.25;99746.19;7684323;32;37413;-81
2023/01/27 09:31:03;;;;;;;35.50;18.70;;;;;;;3.62;55.75;99747.66;7675780;32;40121;-84
2023/01/27 09:35:20;;;;;;;35.75;18.12;;;;;;;3.65;58.31;99751.81;7684381;32;40107;-83
2023/01/27 09:39:43;;;;;;;33.35;17.73;;;;;;;3.45;56.99;99750.19;7684266;32;37863;-81
2023/01/27 09:44:41;;;;;;;39.10;19.75;;;;;;;3.60;56.56;99749.78;7671876;32;37921;-81
2023/01/27 09:49:38;;;;;;;34.65;17.25;;;;;;;3.83;56.42;99750.94;7685055;32;39292;-81
2023/01/27 09:54:11;;;;;;;38.17;17.05;;;;;;;3.82;56.37;99749.31;7647018;32;38391;-82
2023/01/27 09:58:40;;;;;;;34.63;18.17;;;;;;;4.05;55.54;99748.56;7685035;32;37884;-81
2023/01/27 10:03:11;;;;;;;37.85;19.80;;;;;;;3.95;56.06;99751.81;7684876;32;37984;-82
2023/01/27 10:07:33;;;;;;;31.33;18.42;;;;;;;4.16;55.39;99746.94;7684676;32;39831;-81
2023/01/27 10:12:04;;;;;;;35.75;16.90;;;;;;;4.11;56.18;99737.66;7683789;32;39906;-82
2023/01/27 10:16:39;;;;;;;32.70;16.98;;;;;;;4.26;55.29;99733.69;7683547;32;37999;-84
2023/01/27 10:21:04;;;;;;;28.52;15.57;;;;;;;4.18;54.38;99731.38;7671349;32;37297;-84
2023/01/27 10:25:40;;;;;;;31.45;16.05;;;;;;;4.43;53.63;99732.00;7684382;32;39372;-84
2023/01/27 10:30:13;;;;;;;29.45;16.40;;;;;;;4.56;53.41;99730.94;7672123;32;40297;-82
2023/01/27 10:34:34;;;;;;;30.45;15.65;;;;;;;4.46;55.41;99722.59;7679138;32;38054;-84
2023/01/27 10:39:06;;;;;;;27.17;15.20;;;;;;;4.42;53.99;99733.03;7660288;32;38030;-84
2023/01/27 10:43:39;;;;;;;28.60;15.70;;;;;;;4.37;54.17;99730.22;7652986;32;40229;-82
2023/01/27 10:48:11;;;;;;;25.80;13.18;;;;;;;4.57;53.12;99726.34;7653204;32;39985;-82
2023/01/27 10:52:53;;;;;;;24.12;12.55;;;;;;;4.74;51.56;99724.59;7636221;32;38661;-80
2023/01/27 10:57:17;;;;;;;26.75;13.27;;;;;;;4.34;50.78;99719.87;7657523;32;37771;-81
2023/01/27 11:01:44;;;;;;;27.25;13.60;;;;;;;4.02;52.33;99714.78;7650740;32;40065;-81
2023/01/27 11:06:15;;;;;;;21.37;12.10;;;;;;;4.32;51.56;99712.00;7647387;32;40460;-82
2023/01/27 11:11:42;;;;;;;20.85;12.73;;;;;;;4.41;50.77;99704.37;7669165;32;37832;-81
2023/01/27 11:15:30;;;;;;;29.52;12.73;;;;;;;4.57;50.50;99704.75;7646768;32;37157;-82
2023/01/27 11:20:23;;;;;;;24.63;12.98;;;;;;;4.45;51.06;99707.44;7658951;32;39417;-84
2023/01/27 11:24:44;;;;;;;21.25;11.45;;;;;;;4.35;51.65;99699.94;7671289;32;39738;-81
2023/01/27 11:29:13;;;;;;;19.95;12.13;;;;;;;4.45;51.01;99693.94;7678744;32;38602;-82
2023/01/27 11:33:47;;;;;;;18.17;10.27;;;;;;;4.56;49.98;99695.84;7670420;32;37055;-81
2023/01/27 11:38:03;;;;;;;22.67;10.05;;;;;;;4.38;50.56;99696.78;7667757;32;40087;-83
2023/01/27 11:42:34;;;;;;;19.60;10.43;;;;;;;4.63;50.58;99688.44;7665816;32;39940;-82
2023/01/27 11:46:53;;;;;;;18.23;10.23;;;;;;;4.76;50.97;99684.69;7662391;32;37927;-82
2023/01/27 11:51:24;;;;;;;18.95;10.23;;;;;;;4.33;54.87;99693.97;7669968;32;37979;-83
2023/01/27 11:55:44;;;;;;;19.40;9.98;;;;;;;4.69;54.13;99689.37;7666479;32;39375;-82
2023/01/27 12:00:25;;;;;;;17.20;9.30;;;;;;;4.73;53.96;99690.56;7666349;32;39968;-83
2023/01/27 12:04:48;;;;;;;17.83;9.15;;;;;;;4.41;55.70;99692.78;7646753;32;37957;-82
2023/01/27 12:09:05;;;;;;;16.20;8.00;;;;;;;4.51;55.91;99688.44;7644015;32;36890;-82
2023/01/27 12:13:24;;;;;;;14.02;7.32;;;;;;;4.30;56.79;99694.41;7670893;32;39847;-82
2023/01/27 12:17:53;;;;;;;14.43;8.52;;;;;;;4.19;57.66;99679.88;7668365;32;40624;-82
2023/01/27 12:22:36;;;;;;;15.52;8.43;;;;;;;4.18;57.75;99689.00;7655780;32;37478;-82
2023/01/27 12:26:54;;;;;;;14.52;8.05;;;;;;;4.27;57.54;99678.69;7667939;32;37274;-83
2023/01/27 12:31:27;;;;;;;15.10;8.13;;;;;;;4.13;58.50;99675.38;7649675;32;39014;-82
2023/01/27 12:35:46;;;;;;;14.23;8.60;;;;;;;4.04;57.91;99672.19;7651793;32;39952;-82
2023/01/27 12:40:15;;;;;;;16.17;9.38;;;;;;;4.08;57.98;99673.37;7670739;32;37647;-82
2023/01/27 12:44:42;;;;;;;17.50;10.35;;;;;;;4.17;58.49;99659.56;7672590;32;37808;-82
2023/01/27 12:49:09;;;;;;;17.48;10.20;;;;;;;4.02;59.13;99657.28;7661060;32;40042;-82
2023/01/27 12:53:27;;;;;;;17.85;9.85;;;;;;;4.04;59.31;99655.19;7648060;32;39965;-82
2023/01/27 12:57:48;;;;;;;17.70;9.38;;;;;;;4.05;59.04;99646.88;7671557;32;38710;-83
2023/01/27 13:02:24;;;;;;;16.23;8.95;;;;;;;3.92;60.36;99649.78;7674536;32;36125;-82
2023/01/27 13:06:46;;;;;;;15.70;9.70;;;;;;;3.60;59.95;99650.03;7640997;32;40286;-83
2023/01/27 13:11:03;;;;;;;19.67;10.57;;;;;;;3.76;60.17;99660.19;7672352;32;39913;-82
2023/01/27 13:15:22;;;;;;;22.02;12.43;;;;;;;3.53;61.16;99654.69;7667516;32;37912;-84
2023/01/27 13:19:45;;;;;;;19.90;10.68;;;;;;;3.34;61.66;99646.66;7672064;32;37176;-82
2023/01/27 13:24:18;;;;;;;19.43;10.63;;;;;;;3.20;62.32;99653.28;7659187;32;39148;-82
2023/01/27 13:29:03;;;;;;;18.37;10.82;;;;;;;3.38;61.71;99647.84;7651797;32;40729;-82
2023/01/27 13:33:42;;;;;;;17.93;9.83;;;;;;;3.52;61.15;99682.72;7672734;32;38102;-82
2023/01/27 13:38:05;;;;;;;21.50;10.05;;;;;;;3.22;61.10;99678.09;7680535;32;37221;-82
2023/01/27 13:42:43;;;;;;;18.02;10.32;;;;;;;2.80;63.37;99686.06;7658242;32;39414;-81
2023/01/27 13:47:08;;;;;;;17.75;9.57;;;;;;;2.81;62.88;99685.00;7679177;32;40974;-79
2023/01/27 13:51:28;;;;;;;16.00;9.13;;;;;;;2.79;62.53;99693.31;7657277;32;37895;-82
2023/01/27 13:56:05;;;;;;;18.17;9.68;;;;;;;2.78;63.43;99680.06;7671561;32;37334;-83
2023/01/27 14:00:36;;;;;;;17.55;9.55;;;;;;;2.58;64.00;99689.16;7659493;32;40165;-83
2023/01/27 14:05:07;;;;;;;17.87;9.60;;;;;;;2.62;63.91;99693.06;7668428;32;39845;-82
2023/01/27 14:09:40;;;;;;;19.90;9.82;;;;;;;2.68;63.47;99688.66;7660129;32;37965;-83
2023/01/27 14:14:20;;;;;;;16.87;9.70;;;;;;;2.81;63.22;99698.47;7661198;32;37101;-83
2023/01/27 14:18:54;;;;;;;15.18;8.40;;;;;;;2.75;62.84;99680.53;7659509;32;39193;-83
2023/01/27 14:23:26;;;;;;;16.95;8.73;;;;;;;2.64;63.65;99679.41;7651687;32;39986;-82
2023/01/27 14:27:59;;;;;;;15.30;9.18;;;;;;;3.12;61.75;99678.66;7677975;32;36865;-82
2023/01/27 14:32:46;;;;;;;18.35;9.48;;;;;;;2.86;62.64;99679.75;7649667;32;37285;-82
2023/01/27 14:37:06;;;;;;;18.48;9.48;;;;;;;2.90;61.69;99683.66;7659912;32;40479;-82
2023/01/27 14:41:35;;;;;;;17.55;9.55;;;;;;;2.86;61.93;99687.03;7675568;32;39954;-82
2023/01/27 14:46:17;;;;;;;19.65;11.23;;;;;;;2.75;62.45;99684.03;7671938;32;37858;-81
2023/01/27 14:50:51;;;;;;;21.17;11.75;;;;;;;2.89;62.12;99681.19;7671791;32;37133;-81
2023/01/27 14:55:33;;;;;;;22.90;11.40;;;;;;;3.30;61.52;99666.22;7661837;32;39337;-82
2023/01/27 14:59:50;;;;;;;22.87;11.75;;;;;;;3.07;61.14;99667.75;7657515;32;39997;-84
2023/01/27 15:04:20;;;;;;;25.75;13.13;;;;;;;3.26;61.40;99667.69;7657165;32;37709;-82
2023/01/27 15:09:00;;;;;;;23.92;13.23;;;;;;;3.35;61.06;99669.88;7634724;32;306328;-81
2023/01/27 15:13:35;;;;;;;24.85;13.30;;;;;;;3.16;60.83;99670.94;7657728;32;39188;-82
2023/01/27 15:18:20;;;;;;;25.40;14.07;;;;;;;3.09;61.83;99676.41;7654285;32;40831;-81
2023/01/27 15:23:12;;;;;;;22.80;12.73;;;;;;;2.82;62.86;99681.25;7645706;32;37839;-79
2023/01/27 15:27:28;;;;;;;24.85;13.55;;;;;;;2.95;61.95;99683.81;7613836;32;37959;-82
2023/01/27 15:32:11;;;;;;;24.95;13.98;;;;;;;2.88;62.60;99691.16;7658846;32;38316;-82
2023/01/27 15:36:28;;;;;;;21.85;12.48;;;;;;;3.26;61.02;99691.94;7670261;32;39995;-83
2023/01/27 15:41:11;;;;;;;30.48;15.88;;;;;;;3.03;61.92;99688.06;7653282;32;37673;-82
2023/01/27 15:45:30;;;;;;;34.92;16.98;;;;;;;2.94;62.37;99702.91;7647132;32;35621;-81
2023/01/27 15:50:05;;;;;;;58.87;32.97;;;;;;;2.48;64.07;99706.84;7662196;32;38296;-80
2023/01/27 15:54:31;;;;;;;27.95;14.05;;;;;;;2.84;62.65;99700.72;7643779;32;40605;-83
2023/01/27 15:58:57;;;;;;;26.65;14.60;;;;;;;2.37;64.36;99700.34;7654839;32;37822;-80
2023/01/27 16:03:45;;;;;;;27.52;14.77;;;;;;;2.60;63.04;99702.41;7643996;32;36087;-82
2023/01/27 16:08:02;;;;;;;30.48;15.90;;;;;;;2.75;62.68;99696.66;7658500;32;37735;-84
2023/01/27 16:12:26;;;;;;;29.58;16.55;;;;;;;2.77;62.33;99713.41;7648726;32;40007;-81
2023/01/27 16:16:50;;;;;;;26.05;14.43;;;;;;;2.88;62.54;99715.38;7671365;32;37844;-83
2023/01/27 16:21:27;;;;;;;32.97;17.37;;;;;;;2.55;63.20;99718.37;7665869;32;37014;-80
2023/01/27 16:25:51;;;;;;;26.65;13.57;;;;;;;2.46;63.14;99725.91;7650718;32;38766;-82
2023/01/27 16:30:20;;;;;;;25.37;13.75;;;;;;;2.60;63.21;99721.25;7643948;32;40756;-83
2023/01/27 16:34:45;;;;;;;24.98;13.32;;;;;;;2.81;62.44;99728.06;7645021;32;37896;-82
2023/01/27 16:39:31;;;;;;;22.98;12.65;;;;;;;2.82;62.22;99735.13;7660431;32;36894;-82
2023/01/27 16:44:12;;;;;;;26.33;13.65;;;;;;;2.76;62.63;99736.84;7651953;32;39871;-81
2023/01/27 16:48:37;;;;;;;25.52;13.05;;;;;;;2.63;62.93;99736.94;7641834;32;41214;-81
2023/01/27 16:52:53;;;;;;;27.52;14.95;;;;;;;2.82;62.39;99735.94;7658439;32;37951;-81
2023/01/27 16:57:40;;;;;;;26.90;14.35;;;;;;;2.85;62.43;99734.69;7666539;32;37156;-81
2023/01/27 17:02:02;;;;;;;28.33;15.45;;;;;;;3.26;60.75;99735.06;7679070;32;40109;-82
2023/01/27 17:06:28;;;;;;;30.95;15.45;;;;;;;3.16;61.04;99741.81;7667291;32;39596;-82
2023/01/27 17:11:18;;;;;;;27.23;15.35;;;;;;;3.07;61.40;99739.63;7658919;32;38736;-82
2023/01/27 17:15:36;;;;;;;27.85;15.73;;;;;;;3.22;60.80;99736.56;7637756;32;37321;-82
2023/01/27 17:20:05;;;;;;;28.90;14.40;;;;;;;3.38;60.25;99744.88;7647609;32;39161;-81
2023/01/27 17:24:36;;;;;;;24.95;14.02;;;;;;;3.41;60.62;99748.16;7649475;32;40856;-81
2023/01/27 17:28:52;;;;;;;26.98;14.23;;;;;;;3.20;61.13;99753.78;7678347;32;37861;-82
2023/01/27 17:33:18;;;;;;;30.67;14.50;;;;;;;3.05;61.59;99769.47;7658706;32;37331;-82
2023/01/27 17:37:40;;;;;;;24.85;14.30;;;;;;;3.18;61.06;99772.03;7645363;32;40034;-82
2023/01/27 17:41:58;;;;;;;24.52;14.70;;;;;;;3.04;61.41;99781.31;7645359;32;40016;-81
2023/01/27 17:46:20;;;;;;;38.53;17.75;;;;;;;3.06;61.78;99779.22;7655966;32;36873;-81
2023/01/27 17:50:38;;;;;;;35.53;17.48;;;;;;;2.65;62.83;99777.09;7674401;32;37116;-82
2023/01/27 17:55:01;;;;;;;29.48;15.48;;;;;;;2.81;62.66;99772.00;7666160;32;39997;-82
2023/01/27 17:59:21;;;;;;;31.87;16.17;;;;;;;2.64;63.10;99776.28;7649071;32;40773;-81
2023/01/27 18:03:39;;;;;;;27.58;15.35;;;;;;;2.88;62.21;99777.31;7682285;32;37931;-81
2023/01/27 18:07:55;;;;;;;38.25;18.08;;;;;;;2.80;62.84;99774.91;7671542;32;37840;-81
2023/01/27 18:12:30;;;;;;;37.10;17.50;;;;;;;2.79;62.91;99771.41;7682111;32;40141;-83
2023/01/27 18:17:26;;;;;;;29.77;16.35;;;;;;;3.06;62.31;99775.69;7669543;32;40025;-81
2023/01/27 18:21:42;;;;;;;28.35;16.37;;;;;;;2.97;62.33;99775.97;7656462;32;37762;-81
2023/01/27 18:26:22;;;;;;;33.95;17.65;;;;;;;3.01;62.55;99787.94;7656931;32;37261;-81
2023/01/27 18:30:48;;;;;;;32.80;16.62;;;;;;;3.33;61.63;99798.62;7646159;32;40223;-81
2023/01/27 18:35:31;;;;;;;31.50;17.42;;;;;;;3.12;62.07;99789.09;7664064;32;39987;-83
2023/01/27 18:39:48;;;;;;;38.53;17.55;;;;;;;3.05;61.93;99793.72;7631227;32;37933;-80
2023/01/27 18:44:07;;;;;;;32.60;18.27;;;;;;;3.04;61.98;99788.56;7657171;32;37230;-85
2023/01/27 18:48:23;;;;;;;31.55;17.23;;;;;;;3.16;61.62;99790.28;7657154;32;38997;-82
2023/01/27 18:52:40;;;;;;;25.40;14.00;;;;;;;2.64;63.10;99792.44;7658085;32;39867;-82
2023/01/27 18:56:57;;;;;;;29.25;15.60;;;;;;;2.97;62.42;99792.16;7657936;32;38088;-81
2023/01/27 19:01:19;;;;;;;28.95;15.15;;;;;;;2.59;64.03;99795.78;7655063;32;37943;-83
2023/01/27 19:05:35;;;;;;;29.33;15.30;;;;;;;2.61;63.99;99788.31;7655094;32;40131;-83
2023/01/27 19:09:54;;;;;;;28.80;14.50;;;;;;;2.82;63.56;99794.34;7649484;32;39996;-77
2023/01/27 19:14:10;;;;;;;31.58;17.08;;;;;;;2.72;63.83;99802.09;7669976;32;37168;-77
2023/01/27 19:18:32;;;;;;;44.38;21.87;;;;;;;2.38;64.44;99793.44;7676937;32;38163;-77
2023/01/27 19:22:51;;;;;;;42.33;23.00;;;;;;;2.37;64.92;99807.97;7656305;32;39736;-78
2023/01/27 19:27:11;;;;;;;38.33;19.48;;;;;;;2.51;64.55;99806.00;7677766;32;38393;-83
2023/01/27 19:31:27;;;;;;;33.92;19.62;;;;;;;2.17;65.50;99814.28;7657242;32;37971;-83
2023/01/27 19:35:47;;;;;;;39.65;19.80;;;;;;;2.15;65.47;99810.97;7679664;32;38178;-82
2023/01/27 19:40:14;;;;;;;39.55;18.70;;;;;;;2.72;63.84;99805.59;7671859;32;39340;-82
2023/01/27 19:44:30;;;;;;;36.38;18.62;;;;;;;2.71;63.88;99811.22;7658340;32;39885;-82
2023/01/27 19:48:48;;;;;;;32.38;16.55;;;;;;;2.90;63.15;99821.00;7657825;32;37785;-83
2023/01/27 19:53:04;;;;;;;34.47;18.10;;;;;;;3.01;62.57;99814.06;7658034;32;37229;-80
2023/01/27 19:57:20;;;;;;;30.60;15.00;;;;;;;2.97;62.71;99819.06;7660002;32;40044;-83
2023/01/27 20:01:36;;;;;;;35.95;17.75;;;;;;;3.05;61.78;99814.44;7657676;32;40032;-81
2023/01/27 20:05:53;;;;;;;34.75;16.58;;;;;;;3.08;62.17;99814.00;7646429;32;39141;-82
2023/01/27 20:10:31;;;;;;;33.03;17.98;;;;;;;2.95;62.47;99823.88;7659593;32;36901;-82
2023/01/27 20:14:47;;;;;;;31.65;17.85;;;;;;;2.50;64.21;99825.87;7654797;32;38931;-82
2023/01/27 20:19:03;;;;;;;33.90;18.42;;;;;;;2.62;64.13;99827.66;7643746;32;39901;-82
2023/01/27 20:23:20;;;;;;;31.12;18.08;;;;;;;2.75;63.51;99829.41;7657329;32;37874;-82
2023/01/27 20:27:36;;;;;;;37.22;18.10;;;;;;;2.81;63.65;99843.84;7655667;32;37222;-83
2023/01/27 20:31:52;;;;;;;33.10;18.62;;;;;;;2.77;63.76;99840.78;7657392;32;40151;-83
2023/01/27 20:36:12;;;;;;;37.85;18.48;;;;;;;3.00;63.11;99845.56;7657382;32;39627;-82
2023/01/27 20:40:29;;;;;;;36.85;18.30;;;;;;;2.81;63.70;99843.84;7643681;32;37496;-82
2023/01/27 20:44:45;;;;;;;35.38;18.12;;;;;;;2.75;63.90;99839.34;7657045;32;37731;-83
2023/01/27 20:49:01;;;;;;;37.75;19.02;;;;;;;2.73;63.86;99849.53;7656388;32;40195;-83
2023/01/27 20:53:18;;;;;;;31.95;19.45;;;;;;;2.47;64.66;99845.12;7655176;32;40023;-82
2023/01/27 20:57:34;;;;;;;40.63;20.25;;;;;;;2.73;64.07;99844.16;7657741;32;38860;-85